Time;durP1;ratioP1;P1;durP2;ratioP2;P2;SDS_P1;SDS_P2;PMS_P1;PMS_P2;Temp;Humidity;BMP_temperature;BMP_pressure;BME280_temperature;BME280_humidity;BME280_pressure;Samples;Min_cycle;Max_cycle;Signal;HPM_P1;HPM_P2
2021/04/29 00:02:14;;;;;;;1.1;0.9;;;;;;;11.15;68.25977;925.7061;;;;
2021/04/29 00:04:40;;;;;;;1.3;1.1;;;;;;;11.11;68.32422;925.8539;;;;
2021/04/29 00:07:05;;;;;;;5.3;1.2;;;;;;;10.89;69.09961;925.8557;;;;
2021/04/29 00:09:31;;;;;;;3.1;1.1;;;;;;;10.74;69.65723;925.8881;;;;
2021/04/29 00:11:56;;;;;;;2.1;1.4;;;;;;;10.91;69.375;925.8164;;;;
2021/04/29 00:14:24;;;;;;;1.3;0.9;;;;;;;10.95;69.12012;925.8406;;;;
2021/04/29 00:16:49;;;;;;;0.9;0.9;;;;;;;10.9;69.30664;925.8428;;;;
2021/04/29 00:19:19;;;;;;;1.2;0.9;;;;;;;11;69.09277;925.9102;;;;
2021/04/29 00:21:44;;;;;;;1.6;1.2;;;;;;;11.08;69.00293;925.9469;;;;
2021/04/29 00:24:09;;;;;;;0.7;0.7;;;;;;;11.09;68.77734;925.9714;;;;
2021/04/29 00:26:34;;;;;;;1.6;1;;;;;;;10.95;69.46387;925.8247;;;;
2021/04/29 00:29:00;;;;;;;2.2;1.2;;;;;;;10.95;69.83984;925.929;;;;
2021/04/29 00:31:25;;;;;;;1.5;1;;;;;;;10.98;70.30273;925.9047;;;;
2021/04/29 00:33:51;;;;;;;1.7;1.3;;;;;;;11.03;69.79395;925.9244;;;;
2021/04/29 00:36:16;;;;;;;2.7;1.5;;;;;;;10.93;69.91797;925.9539;;;;
2021/04/29 00:38:42;;;;;;;3.2;1.5;;;;;;;10.99;69.66406;925.9708;;;;
2021/04/29 00:41:07;;;;;;;1.6;1.2;;;;;;;11.02;69.75977;926.0048;;;;
2021/04/29 00:43:34;;;;;;;1.9;1.5;;;;;;;10.99;69.77832;925.962;;;;
2021/04/29 00:45:59;;;;;;;1.5;1.4;;;;;;;11.03;69.47656;925.9856;;;;
2021/04/29 00:48:24;;;;;;;1.1;1;;;;;;;11.1;69.46289;926.0326;;;;
2021/04/29 00:50:50;;;;;;;2.1;1.5;;;;;;;11.04;69.48828;925.9769;;;;
2021/04/29 00:53:16;;;;;;;2.9;1.3;;;;;;;10.85;70.22168;926.1006;;;;
2021/04/29 00:55:41;;;;;;;2.1;1;;;;;;;10.77;70.67871;926.1021;;;;
2021/04/29 00:58:07;;;;;;;2.1;1.2;;;;;;;10.84;70.37012;926.0234;;;;
2021/04/29 01:00:34;;;;;;;1.4;1.2;;;;;;;10.86;70.02051;926.0527;;;;
2021/04/29 01:03:00;;;;;;;2;1.2;;;;;;;10.85;69.78906;926.025;;;;
2021/04/29 01:05:25;;;;;;;2;1.1;;;;;;;10.93;69.80273;926.0224;;;;
2021/04/29 01:07:50;;;;;;;5.7;1.8;;;;;;;10.98;69.47852;926.0505;;;;
2021/04/29 01:10:17;;;;;;;2.6;0.9;;;;;;;11.07;69.24121;926.0274;;;;
2021/04/29 01:12:40;;;;;;;1.5;1.1;;;;;;;11.14;69.11523;926.0711;;;;
2021/04/29 01:15:06;;;;;;;3.9;1.4;;;;;;;11.19;69.06738;926.0801;;;;
2021/04/29 01:17:34;;;;;;;1.7;1.5;;;;;;;11.26;68.52832;926.0396;;;;
2021/04/29 01:20:03;;;;;;;1.6;1.3;;;;;;;11.33;68.65234;926.0993;;;;
2021/04/29 01:22:30;;;;;;;2.4;1.5;;;;;;;11.36;68.29199;926.0496;;;;
2021/04/29 01:24:58;;;;;;;2.1;1.5;;;;;;;11.3;68.55859;925.9817;;;;
2021/04/29 01:27:23;;;;;;;1.6;1.4;;;;;;;11.21;69.7334;926.0623;;;;
2021/04/29 01:29:53;;;;;;;1.3;1.2;;;;;;;11.18;69.15527;926.0316;;;;
2021/04/29 01:32:18;;;;;;;1.4;1;;;;;;;11.17;69.36035;926.0865;;;;
2021/04/29 01:34:48;;;;;;;3;1.5;;;;;;;11.14;69.18457;926.1445;;;;
2021/04/29 01:37:18;;;;;;;2.2;1.3;;;;;;;11.08;69.20996;926.1061;;;;
2021/04/29 01:39:43;;;;;;;2.8;1.1;;;;;;;11.06;69.21875;926.1772;;;;
2021/04/29 01:42:12;;;;;;;1.5;1.3;;;;;;;11.02;69.57715;926.1992;;;;
2021/04/29 01:44:37;;;;;;;1.9;1.5;;;;;;;10.99;70.49805;926.2392;;;;
2021/04/29 01:47:05;;;;;;;2.1;1.4;;;;;;;10.97;70.20801;926.3254;;;;
2021/04/29 01:49:30;;;;;;;1.6;1.3;;;;;;;10.89;70.52832;926.3191;;;;
2021/04/29 01:51:58;;;;;;;1.7;1.5;;;;;;;10.85;70.31348;926.4096;;;;
2021/04/29 01:54:23;;;;;;;1.7;1.2;;;;;;;10.8;70.42188;926.3588;;;;
2021/04/29 01:56:49;;;;;;;7;1.3;;;;;;;10.77;70.53027;926.3313;;;;
2021/04/29 01:59:14;;;;;;;2;1.5;;;;;;;10.79;70.25879;926.3781;;;;
2021/04/29 02:01:39;;;;;;;2.8;1.3;;;;;;;10.79;70.30469;926.3748;;;;
2021/04/29 02:04:04;;;;;;;3.7;1.6;;;;;;;10.8;70.14648;926.46;;;;
2021/04/29 02:06:30;;;;;;;3.6;1.5;;;;;;;10.79;70.35059;926.4155;;;;
2021/04/29 02:08:57;;;;;;;4.1;1.5;;;;;;;10.78;70.26855;926.4316;;;;
2021/04/29 02:11:24;;;;;;;2.5;1.6;;;;;;;10.72;70.28125;926.4123;;;;
2021/04/29 02:13:52;;;;;;;1.7;1.5;;;;;;;10.71;70.49902;926.3996;;;;
2021/04/29 02:16:20;;;;;;;1.9;1.3;;;;;;;10.69;70.72266;926.3816;;;;
2021/04/29 02:18:52;;;;;;;1.6;1.1;;;;;;;10.6;70.88086;926.3232;;;;
2021/04/29 02:21:23;;;;;;;1.9;1.4;;;;;;;10.47;71.75977;926.358;;;;
2021/04/29 02:23:52;;;;;;;1.8;1.5;;;;;;;10.29;72.55176;926.3737;;;;
2021/04/29 02:26:18;;;;;;;1.9;1.3;;;;;;;10.24;72.71387;926.3661;;;;
2021/04/29 02:28:46;;;;;;;3.3;1.2;;;;;;;10.21;72.7207;926.3884;;;;
2021/04/29 02:31:11;;;;;;;1.8;1.3;;;;;;;10.2;72.69629;926.3707;;;;
2021/04/29 02:33:41;;;;;;;1.8;1.4;;;;;;;10.18;72.55664;926.4217;;;;
2021/04/29 02:36:11;;;;;;;2.1;1.5;;;;;;;10.15;72.5752;926.4308;;;;
2021/04/29 02:38:36;;;;;;;2.8;1.3;;;;;;;10.04;72.9082;926.4301;;;;
2021/04/29 02:41:05;;;;;;;2.6;1.3;;;;;;;9.97;73.21582;926.4272;;;;
2021/04/29 02:43:32;;;;;;;2.6;1.2;;;;;;;9.91;73.38867;926.4474;;;;
2021/04/29 02:45:58;;;;;;;1.6;1.2;;;;;;;9.88;73.83887;926.4199;;;;
2021/04/29 02:48:22;;;;;;;1.4;1;;;;;;;9.83;73.91113;926.3661;;;;
2021/04/29 02:50:48;;;;;;;2.2;1.3;;;;;;;9.74;73.96387;926.4387;;;;
2021/04/29 02:53:13;;;;;;;2.7;1.7;;;;;;;9.66;74.16797;926.4075;;;;
2021/04/29 02:55:38;;;;;;;2.6;1.4;;;;;;;9.63;74.2627;926.3864;;;;
2021/04/29 02:58:05;;;;;;;3.5;2;;;;;;;9.59;74.49707;926.4093;;;;
2021/04/29 03:00:29;;;;;;;1.3;1.2;;;;;;;9.62;74.28516;926.3737;;;;
2021/04/29 03:02:56;;;;;;;1.5;1.1;;;;;;;9.64;73.95801;926.3092;;;;
2021/04/29 03:05:21;;;;;;;1.9;1.2;;;;;;;9.62;74.20605;926.3737;;;;
2021/04/29 03:07:49;;;;;;;4.6;1.8;;;;;;;9.62;74.5918;926.4405;;;;
2021/04/29 03:10:20;;;;;;;1.4;1.2;;;;;;;9.64;74.37988;926.4411;;;;
2021/04/29 03:12:45;;;;;;;2.9;1.7;;;;;;;9.62;74.22852;926.492;;;;
2021/04/29 03:15:28;;;;;;;2.1;1.4;;;;;;;9.63;73.98926;926.5421;;;;
2021/04/29 03:17:58;;;;;;;2;1.6;;;;;;;9.58;74.29102;926.5142;;;;
2021/04/29 03:20:30;;;;;;;2.7;1.8;;;;;;;9.59;74.12109;926.4856;;;;
2021/04/29 03:22:57;;;;;;;4.4;1.8;;;;;;;9.54;74.35156;926.6202;;;;
2021/04/29 03:25:32;;;;;;;2.4;1.7;;;;;;;9.49;74.45605;926.6594;;;;
2021/04/29 03:27:59;;;;;;;1.8;1.5;;;;;;;9.44;74.21973;926.6994;;;;
2021/04/29 03:30:24;;;;;;;2.6;1.7;;;;;;;9.46;74.08691;926.77;;;;
2021/04/29 03:32:57;;;;;;;1.8;1.4;;;;;;;9.32;74.68848;926.7894;;;;
2021/04/29 03:35:25;;;;;;;2;1.1;;;;;;;9.33;74.80469;926.8125;;;;
2021/04/29 03:37:57;;;;;;;2.8;1.5;;;;;;;9.22;75.19629;926.8035;;;;
2021/04/29 03:40:22;;;;;;;2.9;1.6;;;;;;;9.17;75.36816;926.8828;;;;
2021/04/29 03:42:47;;;;;;;1.7;1.3;;;;;;;9.18;75.14258;926.9232;;;;
2021/04/29 03:45:17;;;;;;;1.3;1.2;;;;;;;9.15;75.35449;926.8661;;;;
2021/04/29 03:47:45;;;;;;;2.3;1.7;;;;;;;9.12;75.64551;926.9861;;;;
2021/04/29 03:50:14;;;;;;;1.9;1.5;;;;;;;9.13;75.66992;927.0178;;;;
2021/04/29 03:52:39;;;;;;;2.2;1.9;;;;;;;9.03;76.12988;926.9738;;;;
2021/04/29 03:55:11;;;;;;;2.2;1.4;;;;;;;9.01;76.10254;927.0064;;;;
2021/04/29 03:57:40;;;;;;;1.4;1.3;;;;;;;9.03;75.89063;927.0865;;;;
2021/04/29 04:02:31;;;;;;;2.5;1.8;;;;;;;9.09;75.86523;927.1125;;;;
2021/04/29 04:04:56;;;;;;;2.2;1.5;;;;;;;9.11;75.74414;927.0633;;;;
2021/04/29 04:07:24;;;;;;;1.8;1.2;;;;;;;9.11;75.6084;927.0172;;;;
2021/04/29 04:09:50;;;;;;;2.6;1.5;;;;;;;9.14;75.24805;927.0909;;;;
2021/04/29 04:12:21;;;;;;;4.2;2.1;;;;;;;9.15;75.22852;927.1362;;;;
2021/04/29 04:14:56;;;;;;;3.6;1;;;;;;;9.14;75.03418;927.1258;;;;
2021/04/29 04:17:45;;;;;;;2.4;1.5;;;;;;;9.05;75.0166;927.1666;;;;
2021/04/29 04:20:28;;;;;;;4.9;1.9;;;;;;;9.08;75.01172;927.2054;;;;
2021/04/29 04:22:57;;;;;;;2.4;1.6;;;;;;;8.96;75.28711;927.2198;;;;
2021/04/29 04:25:27;;;;;;;2;1.5;;;;;;;8.9;75.78809;927.1842;;;;
2021/04/29 04:27:48;;;;;;;2.7;1.5;;;;;;;8.88;75.98926;927.1533;;;;
2021/04/29 04:30:19;;;;;;;2.5;1.5;;;;;;;8.89;76.20703;927.3033;;;;
2021/04/29 04:32:44;;;;;;;2.3;1.6;;;;;;;8.95;76.30859;927.2786;;;;
2021/04/29 04:35:12;;;;;;;4.9;1.6;;;;;;;9.04;76.03906;927.3072;;;;
2021/04/29 04:37:44;;;;;;;2.9;1.3;;;;;;;9.01;76.06836;927.2747;;;;
2021/04/29 04:40:13;;;;;;;3.5;1.9;;;;;;;9.06;76.12207;927.3627;;;;
2021/04/29 04:42:38;;;;;;;3.6;2;;;;;;;9.08;75.97852;927.334;;;;
2021/04/29 04:45:05;;;;;;;3.1;1.6;;;;;;;9.13;76.11328;927.3276;;;;
2021/04/29 04:47:30;;;;;;;2.8;1.7;;;;;;;9.14;76.26172;927.3259;;;;
2021/04/29 04:49:56;;;;;;;1.8;1.5;;;;;;;9.17;76.16504;927.2147;;;;
2021/04/29 04:52:22;;;;;;;3.1;1.9;;;;;;;9.24;75.7793;927.3466;;;;
2021/04/29 04:54:49;;;;;;;5;1.6;;;;;;;9.33;75.51074;927.3589;;;;
2021/04/29 04:57:13;;;;;;;3.4;1.9;;;;;;;9.37;75.6543;927.3461;;;;
2021/04/29 04:59:38;;;;;;;2.2;1.5;;;;;;;9.53;75.06738;927.3458;;;;
2021/04/29 05:02:05;;;;;;;2.3;1.8;;;;;;;9.62;74.64844;927.2916;;;;
2021/04/29 05:04:30;;;;;;;2.3;1.4;;;;;;;9.73;73.82715;927.3212;;;;
2021/04/29 05:06:56;;;;;;;4.8;2;;;;;;;9.81;73.26758;927.3318;;;;
2021/04/29 05:09:21;;;;;;;6.4;1.8;;;;;;;9.89;72.82715;927.3667;;;;
2021/04/29 05:11:51;;;;;;;3.5;2.1;;;;;;;9.89;72.80469;927.4629;;;;
2021/04/29 05:14:19;;;;;;;2.4;1.8;;;;;;;9.87;72.90234;927.4606;;;;
2021/04/29 05:16:58;;;;;;;3.4;2.1;;;;;;;10;72.76563;927.4694;;;;
2021/04/29 05:19:27;;;;;;;2;1.5;;;;;;;9.92;72.55859;927.4199;;;;
2021/04/29 05:21:58;;;;;;;2.7;1.6;;;;;;;9.93;72.47852;927.5851;;;;
2021/04/29 05:24:27;;;;;;;2.2;1.6;;;;;;;10.05;72.95605;927.5919;;;;
2021/04/29 05:26:52;;;;;;;3.8;2.7;;;;;;;10.26;72.72949;927.5959;;;;
2021/04/29 05:29:17;;;;;;;6.1;2.7;;;;;;;11.02;70.87988;927.6936;;;;
2021/04/29 05:31:44;;;;;;;2.3;1.7;;;;;;;12.16;66.43652;927.6788;;;;
2021/04/29 05:34:11;;;;;;;2.3;1.8;;;;;;;13.7;61.63379;927.6588;;;;
2021/04/29 05:36:36;;;;;;;2;1.3;;;;;;;14.28;58.66504;927.69;;;;
2021/04/29 05:39:03;;;;;;;2;1.5;;;;;;;15.37;55.5332;927.7202;;;;
2021/04/29 05:41:28;;;;;;;1.9;1.5;;;;;;;16.7;50.84961;927.6408;;;;
2021/04/29 05:43:53;;;;;;;1.6;1.2;;;;;;;17.35;48.32715;927.5884;;;;
2021/04/29 05:46:19;;;;;;;1.8;1.3;;;;;;;16.17;50.98438;927.6516;;;;
2021/04/29 05:48:45;;;;;;;1.7;1;;;;;;;18.1;47.16602;927.6772;;;;
2021/04/29 05:51:10;;;;;;;1.3;1;;;;;;;17.85;47.2793;927.7131;;;;
2021/04/29 05:53:36;;;;;;;0.8;0.8;;;;;;;17.12;48.60254;927.7374;;;;
2021/04/29 05:56:01;;;;;;;1.4;1;;;;;;;16.28;50.4873;927.7217;;;;
2021/04/29 05:58:27;;;;;;;0.8;0.8;;;;;;;15.99;51.70313;927.8139;;;;
2021/04/29 06:00:52;;;;;;;0.9;0.8;;;;;;;15.65;53.89355;927.8292;;;;
2021/04/29 06:03:21;;;;;;;2.7;1.1;;;;;;;15.49;54.43945;927.8378;;;;
2021/04/29 06:05:44;;;;;;;2;1.1;;;;;;;15.44;53.87793;927.8303;;;;
2021/04/29 06:08:10;;;;;;;0.9;0.9;;;;;;;15.38;54.09082;927.8234;;;;
2021/04/29 06:10:36;;;;;;;1.9;1.5;;;;;;;15.28;54.48242;927.8516;;;;
2021/04/29 06:13:02;;;;;;;1.4;1.2;;;;;;;15.18;54.76953;927.7971;;;;
2021/04/29 06:15:44;;;;;;;3.9;1.4;;;;;;;15.13;55.31738;927.7886;;;;
2021/04/29 06:18:10;;;;;;;5.8;2.1;;;;;;;15.4;55.00488;927.8237;;;;
2021/04/29 06:20:41;;;;;;;1.8;1.4;;;;;;;15.67;53.82617;927.7967;;;;
2021/04/29 06:23:09;;;;;;;5.5;1.6;;;;;;;15.76;54.71484;927.7598;;;;
2021/04/29 06:25:34;;;;;;;1;0.7;;;;;;;15.98;54.70801;927.8817;;;;
2021/04/29 06:28:04;;;;;;;2.7;1.5;;;;;;;16.1;55.42773;927.8761;;;;
2021/04/29 06:30:29;;;;;;;1;0.9;;;;;;;16.16;54.85742;927.912;;;;
2021/04/29 06:32:54;;;;;;;1.5;1.2;;;;;;;16.04;54.87695;927.9268;;;;
2021/04/29 06:35:23;;;;;;;1.4;1.1;;;;;;;15.81;55.75;927.9622;;;;
2021/04/29 06:37:48;;;;;;;1.1;1;;;;;;;15.55;57.02246;927.9983;;;;
2021/04/29 06:40:18;;;;;;;3.2;1.3;;;;;;;15.37;57.48438;927.9945;;;;
2021/04/29 06:42:44;;;;;;;2.3;1.6;;;;;;;15.15;58.07715;928.084;;;;
2021/04/29 06:45:16;;;;;;;1.6;1.2;;;;;;;15.04;57.26758;928.0491;;;;
2021/04/29 06:47:47;;;;;;;1.8;1.2;;;;;;;14.89;57.33887;928.005;;;;
2021/04/29 06:50:15;;;;;;;2.1;1.4;;;;;;;14.45;59.73633;928.0287;;;;
2021/04/29 06:52:43;;;;;;;2.2;1.2;;;;;;;14.61;59.76855;928.0767;;;;
2021/04/29 06:55:08;;;;;;;1.2;1.1;;;;;;;14.87;58.15527;928.1185;;;;
2021/04/29 06:57:34;;;;;;;5.8;1.8;;;;;;;14.92;58.58887;928.1638;;;;
2021/04/29 06:59:59;;;;;;;2;1.5;;;;;;;14.8;58.9082;928.1486;;;;
2021/04/29 07:02:27;;;;;;;1.5;1.2;;;;;;;14.56;59.70508;928.1962;;;;
2021/04/29 07:04:52;;;;;;;1.1;0.5;;;;;;;14.24;60.45605;928.2081;;;;
2021/04/29 07:07:18;;;;;;;3.6;1.3;;;;;;;14.47;59.43945;928.1559;;;;
2021/04/29 07:09:43;;;;;;;3.6;1.6;;;;;;;14.26;60.26172;928.1613;;;;
2021/04/29 07:12:13;;;;;;;2.6;1.2;;;;;;;14.34;59.54785;928.2206;;;;
2021/04/29 07:14:44;;;;;;;0.8;0.8;;;;;;;14.44;59.30859;928.2068;;;;
2021/04/29 07:17:22;;;;;;;1.5;0.9;;;;;;;14.39;60.16504;928.2083;;;;
2021/04/29 07:19:56;;;;;;;1.3;1.1;;;;;;;14.43;60.0332;928.1989;;;;
2021/04/29 07:22:25;;;;;;;1.8;1.3;;;;;;;14.53;60.16211;928.265;;;;
2021/04/29 07:24:54;;;;;;;0.9;0.8;;;;;;;14.36;60.92188;928.3017;;;;
2021/04/29 07:27:19;;;;;;;1.9;0.9;;;;;;;14.11;61.73828;928.3354;;;;
2021/04/29 07:29:46;;;;;;;0.9;0.8;;;;;;;14.19;61.32422;928.3098;;;;
2021/04/29 07:32:12;;;;;;;4.9;1;;;;;;;13.96;62.09766;928.3453;;;;
2021/04/29 07:34:41;;;;;;;0.9;0.6;;;;;;;14.02;62.68066;928.3709;;;;
2021/04/29 07:37:06;;;;;;;1;0.7;;;;;;;14.03;61.05957;928.3354;;;;
2021/04/29 07:39:36;;;;;;;0.5;0.5;;;;;;;13.81;61.78711;928.288;;;;
2021/04/29 07:42:11;;;;;;;2.1;0.7;;;;;;;13.77;62.58691;928.4319;;;;
2021/04/29 07:44:41;;;;;;;1.7;0.8;;;;;;;13.95;61.29004;928.4624;;;;
2021/04/29 07:47:12;;;;;;;1;0.6;;;;;;;13.93;60.72168;928.4788;;;;
2021/04/29 07:49:41;;;;;;;0.7;0.5;;;;;;;13.97;59.91211;928.5036;;;;
2021/04/29 07:52:06;;;;;;;0.9;0.8;;;;;;;13.88;60.0957;928.5037;;;;
2021/04/29 07:54:32;;;;;;;1.2;0.8;;;;;;;13.89;60.44141;928.4956;;;;
2021/04/29 07:56:57;;;;;;;0.3;0.3;;;;;;;13.88;60.66992;928.5653;;;;
2021/04/29 07:59:24;;;;;;;0.6;0.6;;;;;;;13.93;59.64063;928.5573;;;;
2021/04/29 08:01:50;;;;;;;0.7;0.4;;;;;;;13.99;59.91504;928.5504;;;;
2021/04/29 08:04:17;;;;;;;1.4;0.6;;;;;;;14.11;59.02344;928.6035;;;;
2021/04/29 08:06:43;;;;;;;0.3;0.3;;;;;;;14.08;59.85742;928.601;;;;
2021/04/29 08:09:12;;;;;;;0.6;0.6;;;;;;;14.1;58.89355;928.6223;;;;
2021/04/29 08:11:37;;;;;;;0.7;0.4;;;;;;;13.95;59.0459;928.62;;;;
2021/04/29 08:14:02;;;;;;;0.8;0.6;;;;;;;13.87;58.78125;928.6785;;;;
2021/04/29 08:16:33;;;;;;;0.6;0.4;;;;;;;13.8;59.53125;928.709;;;;
2021/04/29 08:18:58;;;;;;;0.8;0.5;;;;;;;13.73;59.28125;928.755;;;;
2021/04/29 08:21:26;;;;;;;1.1;0.5;;;;;;;13.78;59.60938;928.7517;;;;
2021/04/29 08:23:51;;;;;;;0.8;0.7;;;;;;;13.67;58.81348;928.8056;;;;
2021/04/29 08:26:19;;;;;;;1.6;0.7;;;;;;;13.63;58.75;928.8209;;;;
2021/04/29 08:28:44;;;;;;;0.6;0.6;;;;;;;13.74;58.73047;928.822;;;;
2021/04/29 08:31:10;;;;;;;0.5;0.5;;;;;;;13.87;58.37891;928.8433;;;;
2021/04/29 08:33:35;;;;;;;1.2;0.8;;;;;;;13.8;59.11719;928.825;;;;
2021/04/29 08:36:01;;;;;;;9.8;0.8;;;;;;;13.96;58.94336;928.7664;;;;
2021/04/29 08:38:27;;;;;;;1.6;0.7;;;;;;;13.89;58.95801;928.7723;;;;
2021/04/29 08:40:53;;;;;;;0.5;0.4;;;;;;;13.9;58.36035;928.8586;;;;
2021/04/29 08:43:19;;;;;;;0.7;0.6;;;;;;;13.57;59.39648;928.8424;;;;
2021/04/29 08:45:46;;;;;;;0.8;0.6;;;;;;;13.38;58.60254;928.8692;;;;
2021/04/29 08:48:11;;;;;;;1.6;0.9;;;;;;;13.02;60.37891;928.8975;;;;
2021/04/29 08:50:36;;;;;;;2;0.6;;;;;;;13.08;60.35254;928.9894;;;;
2021/04/29 08:53:01;;;;;;;1.2;0.5;;;;;;;13.16;59.92676;929.024;;;;
2021/04/29 08:55:26;;;;;;;1.6;0.8;;;;;;;13.03;59.80566;929.0189;;;;
2021/04/29 08:57:51;;;;;;;0.6;0.4;;;;;;;13.08;59.25;929.0029;;;;
2021/04/29 09:00:17;;;;;;;0.4;0.4;;;;;;;13.21;58.64648;929.0636;;;;
2021/04/29 09:02:42;;;;;;;0.6;0.5;;;;;;;13.26;58.92969;929.0862;;;;
2021/04/29 09:05:09;;;;;;;0.9;0.6;;;;;;;13.24;58.8916;929.137;;;;
2021/04/29 09:07:34;;;;;;;0.4;0.4;;;;;;;13.17;58.70996;929.04;;;;
2021/04/29 09:09:59;;;;;;;0.3;0.3;;;;;;;13.2;59.08203;929.1373;;;;
2021/04/29 09:12:24;;;;;;;4.6;0.8;;;;;;;13.31;58.27051;929.1662;;;;
2021/04/29 09:14:49;;;;;;;0.6;0.5;;;;;;;13.39;59.10742;929.201;;;;
2021/04/29 09:17:15;;;;;;;1.7;0.5;;;;;;;13.43;58.67578;929.2478;;;;
2021/04/29 09:19:40;;;;;;;1.3;0.5;;;;;;;13.54;57.94434;929.2292;;;;
2021/04/29 09:22:05;;;;;;;4.2;0.5;;;;;;;13.48;57.71875;929.2061;;;;
2021/04/29 09:24:30;;;;;;;1.4;0.4;;;;;;;13.59;58.04297;929.1819;;;;
2021/04/29 09:26:56;;;;;;;0.6;0.4;;;;;;;13.73;57.61328;929.2287;;;;
2021/04/29 09:29:21;;;;;;;0.3;0.3;;;;;;;13.62;57.79297;929.2322;;;;
2021/04/29 09:31:47;;;;;;;0.2;0.2;;;;;;;13.45;57.90918;929.3218;;;;
2021/04/29 09:34:12;;;;;;;0.7;0.3;;;;;;;13.38;58.92383;929.3546;;;;
2021/04/29 09:36:38;;;;;;;1.2;0.5;;;;;;;13.36;58.49512;929.3197;;;;
2021/04/29 09:39:03;;;;;;;1.2;0.6;;;;;;;13.36;58.03516;929.303;;;;
2021/04/29 09:41:28;;;;;;;0.3;0.3;;;;;;;13.49;57.73047;929.2668;;;;
2021/04/29 09:43:53;;;;;;;0.1;0.1;;;;;;;13.62;57.17383;929.2512;;;;
2021/04/29 09:46:19;;;;;;;1.8;0.7;;;;;;;13.66;57.30469;929.2371;;;;
2021/04/29 09:48:50;;;;;;;0.2;0.2;;;;;;;13.64;58.01563;929.163;;;;
2021/04/29 09:51:19;;;;;;;0.8;0.5;;;;;;;13.58;58.2959;929.1181;;;;
2021/04/29 09:53:42;;;;;;;0.6;0.6;;;;;;;13.66;57.47754;929.1395;;;;
2021/04/29 09:56:07;;;;;;;0.7;0.3;;;;;;;13.86;56.82422;929.0754;;;;
2021/04/29 09:58:32;;;;;;;3.9;2.5;;;;;;;13.93;58.88086;929.0006;;;;
2021/04/29 10:00:57;;;;;;;2.7;0.9;;;;;;;13.67;59.29492;929.1017;;;;
2021/04/29 10:03:22;;;;;;;2.4;1;;;;;;;13.97;58.46289;929.1214;;;;
2021/04/29 10:05:51;;;;;;;1.4;0.8;;;;;;;14.24;57.77344;929.1873;;;;
2021/04/29 10:08:12;;;;;;;1;0.5;;;;;;;14.37;56.29297;929.1103;;;;
2021/04/29 10:10:40;;;;;;;1.5;0.8;;;;;;;14.6;56.11523;929.0814;;;;
2021/04/29 10:13:05;;;;;;;0.3;0.3;;;;;;;14.53;56.38281;929.1573;;;;
2021/04/29 10:15:38;;;;;;;0.4;0.4;;;;;;;14.47;54.95703;929.0969;;;;
2021/04/29 10:18:05;;;;;;;0.8;0.6;;;;;;;14.41;55.7793;929.0888;;;;
2021/04/29 10:20:32;;;;;;;0.7;0.5;;;;;;;14.39;56.4209;929.0972;;;;
2021/04/29 10:22:57;;;;;;;4.6;0.6;;;;;;;14.28;56.67285;929.1312;;;;
2021/04/29 10:25:22;;;;;;;0.3;0.3;;;;;;;14.42;56.83984;929.1217;;;;
2021/04/29 10:27:47;;;;;;;1;0.7;;;;;;;14.53;55.37988;929.1158;;;;
2021/04/29 10:30:13;;;;;;;0.5;0.4;;;;;;;14.57;55.78809;929.1053;;;;
2021/04/29 10:32:38;;;;;;;0.9;0.3;;;;;;;14.58;56.44629;929.077;;;;
2021/04/29 10:35:03;;;;;;;1;0.7;;;;;;;14.5;57.27832;929.106;;;;
2021/04/29 10:37:28;;;;;;;0.5;0.5;;;;;;;14.51;57.2207;929.0168;;;;
2021/04/29 10:39:53;;;;;;;0.3;0.3;;;;;;;14.61;56.78418;929.0269;;;;
2021/04/29 10:42:20;;;;;;;0.8;0.4;;;;;;;14.54;56.99512;929.0562;;;;
2021/04/29 10:44:45;;;;;;;13.9;0.8;;;;;;;14.56;56.12109;929.014;;;;
2021/04/29 10:47:10;;;;;;;0.5;0.4;;;;;;;14.62;55.48242;928.9708;;;;
2021/04/29 10:49:41;;;;;;;0.9;0.7;;;;;;;14.65;55.80859;928.9309;;;;
2021/04/29 10:52:00;;;;;;;10.6;1.6;;;;;;;14.77;55.74414;928.946;;;;
2021/04/29 10:54:25;;;;;;;0.9;0.6;;;;;;;14.93;54.49609;928.8665;;;;
2021/04/29 10:56:50;;;;;;;1.7;0.9;;;;;;;15.16;54.50293;928.815;;;;
2021/04/29 10:59:15;;;;;;;0.7;0.7;;;;;;;15.08;54.59473;928.7167;;;;
2021/04/29 11:01:41;;;;;;;1.1;0.7;;;;;;;15.05;53.31152;928.6421;;;;
2021/04/29 11:04:08;;;;;;;1.2;0.8;;;;;;;14.89;54.79199;928.6998;;;;
2021/04/29 11:06:34;;;;;;;4.9;0.7;;;;;;;15.03;55.4082;928.7604;;;;
2021/04/29 11:09:01;;;;;;;1.3;0.7;;;;;;;15.09;53.05176;928.7525;;;;
2021/04/29 11:11:26;;;;;;;1.2;0.7;;;;;;;14.91;53.80176;928.7693;;;;
2021/04/29 11:13:51;;;;;;;25.4;1.6;;;;;;;14.86;53.16113;928.7839;;;;
2021/04/29 11:16:22;;;;;;;1.5;0.5;;;;;;;15.19;53.0752;928.759;;;;
2021/04/29 11:18:47;;;;;;;0.3;0.2;;;;;;;15.25;54.20117;928.6763;;;;
2021/04/29 11:21:12;;;;;;;0.4;0.4;;;;;;;15.28;53.10938;928.7371;;;;
2021/04/29 11:23:37;;;;;;;2.3;0.9;;;;;;;15.33;52.43262;928.7497;;;;
2021/04/29 11:26:03;;;;;;;5.3;1.1;;;;;;;15.24;52.43555;928.645;;;;
2021/04/29 11:28:29;;;;;;;0.6;0.4;;;;;;;15.14;54.29199;928.7538;;;;
2021/04/29 11:30:53;;;;;;;1.2;0.6;;;;;;;15.1;55.24512;928.7283;;;;
2021/04/29 11:33:19;;;;;;;2.7;0.7;;;;;;;14.9;53.58105;928.7775;;;;
2021/04/29 11:35:44;;;;;;;1.3;0.3;;;;;;;15.05;54.87988;928.6789;;;;
2021/04/29 11:38:10;;;;;;;1;0.7;;;;;;;15.11;53.52637;928.6503;;;;
2021/04/29 11:40:35;;;;;;;0.5;0.4;;;;;;;15.15;53.81934;928.5845;;;;
2021/04/29 11:43:01;;;;;;;1.1;0.6;;;;;;;15.18;52.12695;928.5822;;;;
2021/04/29 11:45:26;;;;;;;0.9;0.5;;;;;;;14.97;53.83203;928.5931;;;;
2021/04/29 11:47:51;;;;;;;0.6;0.6;;;;;;;14.98;53.90332;928.5287;;;;
2021/04/29 11:50:16;;;;;;;0.4;0.3;;;;;;;15.19;54.11328;928.5787;;;;
2021/04/29 11:52:41;;;;;;;0.9;0.7;;;;;;;15.23;53.32129;928.5884;;;;
2021/04/29 11:55:06;;;;;;;0.4;0.3;;;;;;;15.55;52.44922;928.5744;;;;
2021/04/29 11:57:34;;;;;;;0.3;0.2;;;;;;;15.83;51.26855;928.617;;;;
2021/04/29 11:59:59;;;;;;;0.6;0.5;;;;;;;16.11;49.69434;928.6635;;;;
2021/04/29 12:02:26;;;;;;;0.8;0.5;;;;;;;16.21;49.38184;928.6825;;;;
2021/04/29 12:04:51;;;;;;;0.7;0.4;;;;;;;16.26;50.30078;928.7843;;;;
2021/04/29 12:07:17;;;;;;;4.5;0.7;;;;;;;16.31;49.13672;928.7734;;;;
2021/04/29 12:09:57;;;;;;;0.5;0.4;;;;;;;16.08;50.28027;928.7809;;;;
2021/04/29 12:12:22;;;;;;;0.4;0.4;;;;;;;15.89;49.42578;928.8298;;;;
2021/04/29 12:14:49;;;;;;;0.4;0.4;;;;;;;15.56;51.19043;928.8663;;;;
2021/04/29 12:17:14;;;;;;;1.7;0.5;;;;;;;15.52;51.60156;928.7606;;;;
2021/04/29 12:19:53;;;;;;;0.6;0.5;;;;;;;15.27;52.08105;928.8465;;;;
2021/04/29 12:22:42;;;;;;;0.4;0.4;;;;;;;15.14;52.74512;928.8276;;;;
2021/04/29 12:25:09;;;;;;;0.7;0.5;;;;;;;14.86;53.46094;928.8522;;;;
2021/04/29 12:27:35;;;;;;;1.1;0.6;;;;;;;14.9;54.08984;928.8961;;;;
2021/04/29 12:31:23;;;;;;;0.5;0.5;;;;;;;14.93;53.68945;928.8923;;;;
2021/04/29 12:34:32;;;;;;;0.3;0.3;;;;;;;14.9;54.04297;928.8303;;;;
2021/04/29 12:37:52;;;;;;;2.6;0.8;;;;;;;15.08;53.67188;928.9116;;;;
2021/04/29 12:41:01;;;;;;;2.3;1;;;;;;;14.76;54.26758;928.7939;;;;
2021/04/29 12:44:14;;;;;;;0.8;0.6;;;;;;;14.52;54.83789;928.9012;;;;
2021/04/29 12:46:40;;;;;;;0.7;0.7;;;;;;;14.43;55.50586;928.9164;;;;
2021/04/29 12:49:05;;;;;;;3.6;1.1;;;;;;;14.5;54.5127;928.9337;;;;
2021/04/29 12:51:34;;;;;;;0.6;0.5;;;;;;;14.56;55.85645;928.9205;;;;
2021/04/29 12:53:58;;;;;;;1.4;0.8;;;;;;;14.61;54.12305;928.9313;;;;
2021/04/29 12:56:28;;;;;;;0.6;0.5;;;;;;;14.68;55.98633;928.8918;;;;
2021/04/29 12:58:53;;;;;;;1.4;1;;;;;;;14.7;54.67578;928.9281;;;;
2021/04/29 13:01:18;;;;;;;2.9;0.6;;;;;;;14.83;54.77148;929.0099;;;;
2021/04/29 13:03:43;;;;;;;0.6;0.6;;;;;;;14.87;55.15723;928.9249;;;;
2021/04/29 13:06:10;;;;;;;0.6;0.4;;;;;;;14.89;54.67676;928.9964;;;;
2021/04/29 13:08:34;;;;;;;0.6;0.6;;;;;;;14.89;53.85645;929.0245;;;;
2021/04/29 13:10:59;;;;;;;1.2;0.8;;;;;;;14.87;53.51953;929.0563;;;;
2021/04/29 13:13:25;;;;;;;2;0.7;;;;;;;14.95;53.71387;928.9551;;;;
2021/04/29 13:15:51;;;;;;;1.4;0.8;;;;;;;14.94;52.97461;928.9025;;;;
2021/04/29 13:18:16;;;;;;;1.8;0.8;;;;;;;15.05;52.2041;928.9916;;;;
2021/04/29 13:20:44;;;;;;;0.8;0.7;;;;;;;15.14;52.3877;928.9631;;;;
2021/04/29 13:23:09;;;;;;;1.3;0.9;;;;;;;14.96;52.96582;928.9855;;;;
2021/04/29 13:25:35;;;;;;;6.8;0.8;;;;;;;14.65;53.5625;929.0022;;;;
2021/04/29 13:28:00;;;;;;;2.2;0.8;;;;;;;14.76;53.77148;928.9766;;;;
2021/04/29 13:30:26;;;;;;;4;0.5;;;;;;;14.78;53.73926;928.9586;;;;
2021/04/29 13:32:51;;;;;;;0.5;0.4;;;;;;;14.8;53.76465;928.9863;;;;
2021/04/29 13:35:18;;;;;;;1.2;0.6;;;;;;;14.69;53.68262;929.0375;;;;
2021/04/29 13:37:41;;;;;;;2.9;1.3;;;;;;;14.53;55;929.0748;;;;
2021/04/29 13:40:08;;;;;;;1;0.7;;;;;;;14.61;54.20215;929.0756;;;;
2021/04/29 13:42:34;;;;;;;0.5;0.5;;;;;;;14.55;53.56152;929.0529;;;;
2021/04/29 13:44:59;;;;;;;0.8;0.6;;;;;;;14.39;54.46387;929.0164;;;;
2021/04/29 13:47:24;;;;;;;3.3;1.5;;;;;;;14.55;53.38965;928.9888;;;;
2021/04/29 13:49:50;;;;;;;0.7;0.4;;;;;;;14.45;53.9873;929.0165;;;;
2021/04/29 13:52:15;;;;;;;3.4;1.1;;;;;;;14.53;53.97461;929.0637;;;;
2021/04/29 13:54:42;;;;;;;1.7;0.7;;;;;;;14.64;54.02148;929.041;;;;
2021/04/29 13:57:07;;;;;;;1.6;0.8;;;;;;;14.63;54.04395;928.9995;;;;
2021/04/29 13:59:34;;;;;;;0.9;0.7;;;;;;;14.71;54.03125;928.9864;;;;
2021/04/29 14:01:59;;;;;;;1.7;0.7;;;;;;;14.68;53.55566;929.0367;;;;
2021/04/29 14:04:24;;;;;;;1.2;1;;;;;;;14.88;53.09473;929.0336;;;;
2021/04/29 14:06:49;;;;;;;0.7;0.5;;;;;;;15.01;53.35254;929.0034;;;;
2021/04/29 14:09:18;;;;;;;0.5;0.4;;;;;;;15.03;53.03223;929.0234;;;;
2021/04/29 14:11:46;;;;;;;3.3;1.3;;;;;;;15.06;53.51953;928.9585;;;;
2021/04/29 14:14:11;;;;;;;0.9;0.7;;;;;;;15.22;52.58203;929.0048;;;;
2021/04/29 14:16:36;;;;;;;0.6;0.6;;;;;;;15.28;53.0625;928.9705;;;;
2021/04/29 14:19:01;;;;;;;2.6;0.7;;;;;;;15.43;51.74121;929.0098;;;;
2021/04/29 14:21:27;;;;;;;0.4;0.3;;;;;;;15.44;51.21191;928.9967;;;;
2021/04/29 14:23:52;;;;;;;0.7;0.7;;;;;;;15.47;51.42285;928.9904;;;;
2021/04/29 14:26:19;;;;;;;1.2;0.6;;;;;;;15.46;50.84473;928.9721;;;;
2021/04/29 14:28:45;;;;;;;4;1.2;;;;;;;15.33;52.37598;928.9782;;;;
2021/04/29 14:31:09;;;;;;;0.6;0.5;;;;;;;15.43;51.59082;928.9745;;;;